createdAt,value
2018-08-03T00:00:46.536Z,99.90
2018-08-03T00:02:50.321Z,99.90
2018-08-03T00:06:57.495Z,99.90
2018-08-03T00:09:01.477Z,99.90
2018-08-03T00:11:05.484Z,99.90
2018-08-03T00:13:09.398Z,99.90
2018-08-03T00:15:13.200Z,99.90
2018-08-03T00:17:17.006Z,99.90
2018-08-03T00:19:20.824Z,99.90
2018-08-03T00:21:24.659Z,99.90
2018-08-03T00:23:28.527Z,99.90
2018-08-03T00:25:32.333Z,99.90
2018-08-03T00:27:36.089Z,99.90
2018-08-03T00:29:39.897Z,99.90
2018-08-03T00:31:43.653Z,99.90
2018-08-03T00:33:47.424Z,99.90
2018-08-03T00:35:51.313Z,99.90
2018-08-03T00:37:55.100Z,99.90
2018-08-03T00:39:58.853Z,99.90
2018-08-03T00:42:02.660Z,99.90
2018-08-03T00:44:06.453Z,99.90
2018-08-03T00:46:10.258Z,99.90
2018-08-03T00:48:14.055Z,99.90
2018-08-03T00:50:17.850Z,99.90
2018-08-03T00:52:21.618Z,99.90
2018-08-03T00:54:25.423Z,99.90
2018-08-03T00:56:29.310Z,99.90
2018-08-03T00:58:33.145Z,99.90
2018-08-03T01:00:36.931Z,99.90
2018-08-03T01:02:40.743Z,99.90
2018-08-03T01:04:44.544Z,99.90
2018-08-03T01:06:48.288Z,99.90
2018-08-03T01:08:52.062Z,99.90
2018-08-03T01:10:55.899Z,99.90
2018-08-03T01:12:59.774Z,99.90
2018-08-03T01:15:03.639Z,99.90
2018-08-03T01:17:07.690Z,99.90
2018-08-03T01:19:13.291Z,99.90
2018-08-03T01:21:17.169Z,99.90
2018-08-03T01:23:20.963Z,99.90
2018-08-03T01:25:24.722Z,99.90
2018-08-03T01:27:28.469Z,99.90
2018-08-03T01:29:32.253Z,99.90
2018-08-03T01:31:36.104Z,99.90
2018-08-03T01:33:39.973Z,99.90
2018-08-03T01:35:43.762Z,99.90
2018-08-03T01:37:47.556Z,99.90
2018-08-03T01:39:51.648Z,99.90
2018-08-03T01:41:55.454Z,99.90
2018-08-03T01:43:59.352Z,99.90
2018-08-03T01:46:03.126Z,99.90
2018-08-03T01:48:06.937Z,99.90
2018-08-03T01:50:10.693Z,99.90
2018-08-03T01:52:14.521Z,99.90
2018-08-03T01:54:18.283Z,99.90
2018-08-03T01:56:22.036Z,99.90
2018-08-03T01:58:25.855Z,99.90
2018-08-03T02:00:29.694Z,99.90
2018-08-03T02:02:33.447Z,99.90
2018-08-03T02:04:37.225Z,99.90
2018-08-03T02:06:40.987Z,99.90
2018-08-03T02:08:44.738Z,99.90
2018-08-03T02:10:48.512Z,99.90
2018-08-03T02:12:52.253Z,99.90
2018-08-03T02:14:55.995Z,99.90
2018-08-03T02:16:59.795Z,99.90
2018-08-03T02:19:03.656Z,99.90
2018-08-03T02:21:07.413Z,99.90
2018-08-03T02:23:11.190Z,99.90
2018-08-03T02:25:14.968Z,99.90
2018-08-03T02:27:18.752Z,99.90
2018-08-03T02:29:22.530Z,99.90
2018-08-03T02:31:26.298Z,99.90
2018-08-03T02:33:30.051Z,99.90
2018-08-03T02:35:34.068Z,99.90
2018-08-03T02:37:37.887Z,99.90
2018-08-03T02:39:41.640Z,99.90
2018-08-03T02:41:45.377Z,99.90
2018-08-03T02:43:49.175Z,99.90
2018-08-03T02:45:52.977Z,99.90
2018-08-03T02:47:56.733Z,99.90
2018-08-03T02:50:00.526Z,99.90
2018-08-03T02:52:06.773Z,99.90
2018-08-03T02:54:10.550Z,99.90
2018-08-03T02:56:14.334Z,99.90
2018-08-03T02:58:18.090Z,99.90
2018-08-03T03:00:21.869Z,99.90
2018-08-03T03:02:25.787Z,99.90
2018-08-03T03:04:29.766Z,99.90
2018-08-03T03:06:33.898Z,99.90
2018-08-03T03:08:37.949Z,99.90
2018-08-03T03:10:41.737Z,99.90
2018-08-03T03:12:45.511Z,99.90
2018-08-03T03:14:49.570Z,99.90
2018-08-03T03:16:53.371Z,99.90
2018-08-03T03:18:57.237Z,99.90
2018-08-03T03:21:01.024Z,99.90
2018-08-03T03:23:04.809Z,99.90
2018-08-03T03:25:08.588Z,99.90
2018-08-03T03:27:12.435Z,99.90
2018-08-03T03:29:16.294Z,99.90
2018-08-03T03:31:20.183Z,99.90
2018-08-03T03:33:23.996Z,99.90
2018-08-03T03:35:27.861Z,99.90
2018-08-03T03:37:31.730Z,99.90
2018-08-03T03:39:35.542Z,99.90
2018-08-03T03:41:39.381Z,99.90
2018-08-03T03:43:43.160Z,99.90
2018-08-03T03:45:46.981Z,99.90
2018-08-03T03:47:50.732Z,99.90
2018-08-03T03:49:54.620Z,99.90
2018-08-03T03:51:58.404Z,99.90
2018-08-03T03:54:02.173Z,99.90
2018-08-03T03:56:06.359Z,99.90
2018-08-03T03:58:10.337Z,99.90
2018-08-03T04:00:14.658Z,99.90
2018-08-03T04:02:18.512Z,99.90
2018-08-03T04:04:22.302Z,99.90
2018-08-03T04:06:26.095Z,99.90
2018-08-03T04:08:29.944Z,99.90
2018-08-03T04:10:33.735Z,99.90
2018-08-03T04:12:37.537Z,99.90
2018-08-03T04:14:41.473Z,99.90
2018-08-03T04:16:45.449Z,99.90
2018-08-03T04:18:49.241Z,99.90
2018-08-03T04:20:53.461Z,99.90
2018-08-03T04:22:57.267Z,99.90
2018-08-03T04:25:01.050Z,99.90
2018-08-03T04:27:04.891Z,99.90
2018-08-03T04:29:08.706Z,99.90
2018-08-03T04:31:12.647Z,99.90
2018-08-03T04:33:16.605Z,99.90
2018-08-03T04:35:20.626Z,99.90
2018-08-03T04:37:24.432Z,99.90
2018-08-03T04:39:28.444Z,99.90
2018-08-03T04:41:32.506Z,99.90
2018-08-03T04:43:36.421Z,99.90
2018-08-03T04:45:40.333Z,99.90
2018-08-03T04:47:44.167Z,99.90
2018-08-03T04:49:47.955Z,99.90
2018-08-03T04:51:51.853Z,99.90
2018-08-03T04:53:55.689Z,99.90
2018-08-03T04:55:59.491Z,99.90
2018-08-03T04:58:03.304Z,99.90
2018-08-03T05:00:07.100Z,99.90
2018-08-03T05:02:11.425Z,99.90
2018-08-03T05:04:15.254Z,99.90
2018-08-03T05:06:19.021Z,99.90
2018-08-03T05:08:22.804Z,99.90
2018-08-03T05:10:26.635Z,99.90
2018-08-03T05:12:30.432Z,99.90
2018-08-03T05:14:34.200Z,99.90
2018-08-03T05:16:38.097Z,99.90
2018-08-03T05:18:41.887Z,99.90
2018-08-03T05:20:45.737Z,99.90
2018-08-03T05:22:49.552Z,99.90
2018-08-03T05:24:53.707Z,99.90
2018-08-03T05:26:57.734Z,99.90
2018-08-03T05:29:01.609Z,99.90
2018-08-03T05:31:05.418Z,99.90
2018-08-03T05:33:09.245Z,99.90
2018-08-03T05:35:13.101Z,99.90
2018-08-03T05:37:16.891Z,99.90
2018-08-03T05:39:20.704Z,99.90
2018-08-03T05:41:24.491Z,99.90
2018-08-03T05:43:28.297Z,99.90
2018-08-03T05:45:32.200Z,99.90
2018-08-03T05:47:35.986Z,99.90
2018-08-03T05:49:39.767Z,99.90
2018-08-03T05:51:43.590Z,99.90
2018-08-03T05:53:47.367Z,99.90
2018-08-03T05:55:51.126Z,99.90
2018-08-03T05:57:55.144Z,99.90
2018-08-03T05:59:58.908Z,99.90
2018-08-03T06:02:02.722Z,99.90
2018-08-03T06:04:06.629Z,99.90
2018-08-03T06:06:10.490Z,99.90
2018-08-03T06:08:14.305Z,99.90
2018-08-03T06:10:18.180Z,99.90
2018-08-03T06:12:22.003Z,99.90
2018-08-03T06:14:25.856Z,99.90
2018-08-03T06:16:29.749Z,99.90
2018-08-03T06:18:33.564Z,99.90
2018-08-03T06:20:37.425Z,99.70
2018-08-03T06:22:41.586Z,98.30
2018-08-03T06:24:45.408Z,97.00
2018-08-03T06:26:49.237Z,95.40
2018-08-03T06:28:53.065Z,92.80
2018-08-03T06:30:57.092Z,90.50
2018-08-03T06:33:00.886Z,84.90
2018-08-03T06:35:04.750Z,80.80
2018-08-03T06:37:08.734Z,76.40
2018-08-03T06:39:12.905Z,72.70
2018-08-03T06:41:16.697Z,69.90
2018-08-03T06:43:20.495Z,66.80
2018-08-03T06:45:24.309Z,64.00
2018-08-03T06:47:28.075Z,61.60
2018-08-03T06:49:31.876Z,59.80
2018-08-03T06:51:35.710Z,59.70
2018-08-03T06:53:39.523Z,58.40
2018-08-03T06:55:44.304Z,57.00
2018-08-03T06:57:48.130Z,55.70
2018-08-03T06:59:51.915Z,54.80
2018-08-03T07:01:55.735Z,53.50
2018-08-03T07:03:59.591Z,52.70
2018-08-03T07:06:03.339Z,50.90
2018-08-03T07:08:07.239Z,52.50
2018-08-03T07:10:11.278Z,51.10
2018-08-03T07:12:15.255Z,50.80
2018-08-03T07:14:19.034Z,49.00
2018-08-03T07:16:22.850Z,47.80
2018-08-03T07:18:26.808Z,47.60
2018-08-03T07:20:30.820Z,47.10
2018-08-03T07:22:34.561Z,49.60
2018-08-03T07:24:38.393Z,48.00
2018-08-03T07:26:42.503Z,48.40
2018-08-03T07:28:46.294Z,52.00
2018-08-03T07:30:50.082Z,54.20
2018-08-03T07:32:53.871Z,56.70
2018-08-03T07:34:57.729Z,57.40
2018-08-03T07:37:02.174Z,58.80
2018-08-03T07:39:07.794Z,59.90
2018-08-03T07:41:12.227Z,61.00
2018-08-03T07:43:16.203Z,61.70
2018-08-03T07:45:19.894Z,62.60
2018-08-03T07:47:23.719Z,63.30
2018-08-03T07:49:27.471Z,64.10
2018-08-03T07:51:31.326Z,62.80
2018-08-03T07:53:35.240Z,65.60
2018-08-03T07:55:38.979Z,64.60
2018-08-03T07:57:43.032Z,63.40
2018-08-03T07:59:46.830Z,63.90
2018-08-03T08:01:50.589Z,65.20
2018-08-03T08:03:54.848Z,65.30
2018-08-03T08:05:58.838Z,64.60
2018-08-03T08:08:02.755Z,63.40
2018-08-03T08:10:06.618Z,64.80
2018-08-03T08:12:10.358Z,65.20
2018-08-03T08:14:14.133Z,65.40
2018-08-03T08:16:19.159Z,65.00
2018-08-03T08:18:22.961Z,67.20
2018-08-03T08:20:27.606Z,66.10
2018-08-03T08:22:33.722Z,64.10
2018-08-03T08:24:37.621Z,65.20
2018-08-03T08:26:41.648Z,67.00
2018-08-03T08:28:45.511Z,67.50
2018-08-03T08:30:50.092Z,65.00
2018-08-03T08:32:53.981Z,64.40
2018-08-03T08:34:59.190Z,64.60
2018-08-03T08:37:04.594Z,64.30
2018-08-03T08:39:13.082Z,65.00
2018-08-03T08:41:16.915Z,64.70
2018-08-03T08:43:20.765Z,66.00
2018-08-03T08:45:24.794Z,64.10
2018-08-03T08:47:28.762Z,63.30
2018-08-03T08:49:33.152Z,66.40
2018-08-03T08:51:37.255Z,62.90
2018-08-03T08:53:41.254Z,64.80
2018-08-03T08:55:45.553Z,65.70
2018-08-03T08:57:49.984Z,61.50
2018-08-03T08:59:54.133Z,65.10
2018-08-03T09:01:57.923Z,62.90
2018-08-03T09:04:01.702Z,61.70
2018-08-03T09:06:05.709Z,61.10
2018-08-03T09:08:09.451Z,63.40
2018-08-03T09:10:13.276Z,62.60
2018-08-03T09:12:17.027Z,63.20
2018-08-03T09:14:20.831Z,63.20
2018-08-03T09:16:24.653Z,60.30
2018-08-03T09:18:28.614Z,63.10
2018-08-03T09:20:32.422Z,64.00
2018-08-03T09:22:36.268Z,64.20
2018-08-03T09:24:40.116Z,65.50
2018-08-03T09:26:44.111Z,64.80
2018-08-03T09:28:47.927Z,63.60
2018-08-03T09:30:51.723Z,62.20
2018-08-03T09:32:55.665Z,64.70
2018-08-03T09:34:59.463Z,63.30
2018-08-03T09:37:03.347Z,62.30
2018-08-03T09:39:08.584Z,64.30
2018-08-03T09:41:12.458Z,63.60
2018-08-03T09:43:16.221Z,62.90
2018-08-03T09:45:20.068Z,61.30
2018-08-03T09:47:23.883Z,62.00
2018-08-03T09:49:27.782Z,60.40
2018-08-03T09:51:31.773Z,61.00
2018-08-03T09:53:35.779Z,60.90
2018-08-03T09:55:39.583Z,61.10
2018-08-03T09:57:43.532Z,61.20
2018-08-03T09:59:47.305Z,60.50
2018-08-03T10:01:51.366Z,59.90
2018-08-03T10:03:55.178Z,62.30
2018-08-03T10:05:59.002Z,62.20
2018-08-03T10:08:02.936Z,58.70
2018-08-03T10:10:07.194Z,58.10
2018-08-03T10:12:10.983Z,57.80
2018-08-03T10:14:14.768Z,57.50
2018-08-03T10:16:18.647Z,57.20
2018-08-03T10:18:22.470Z,57.30
2018-08-03T10:20:26.229Z,56.20
2018-08-03T10:22:30.033Z,58.90
2018-08-03T10:24:33.800Z,59.60
2018-08-03T10:26:38.860Z,58.40
2018-08-03T10:28:42.790Z,56.60
2018-08-03T10:30:46.548Z,57.40
2018-08-03T10:32:50.351Z,57.10
2018-08-03T10:34:54.133Z,57.80
2018-08-03T10:36:57.938Z,58.10
2018-08-03T10:39:01.828Z,57.30
2018-08-03T10:41:05.621Z,57.70
2018-08-03T10:43:09.489Z,57.40
2018-08-03T10:45:13.288Z,55.60
2018-08-03T10:47:17.024Z,56.10
2018-08-03T10:49:20.946Z,57.10
2018-08-03T10:51:24.794Z,54.30
2018-08-03T10:53:29.499Z,56.00
2018-08-03T10:55:33.301Z,56.40
2018-08-03T10:57:37.090Z,55.40
2018-08-03T10:59:40.915Z,52.90
2018-08-03T11:01:44.780Z,52.80
2018-08-03T11:03:48.569Z,52.30
2018-08-03T11:05:52.471Z,53.60
2018-08-03T11:07:56.361Z,53.80
2018-08-03T11:10:00.145Z,53.10
2018-08-03T11:12:04.414Z,53.00
2018-08-03T11:14:08.294Z,54.00
2018-08-03T11:16:12.084Z,51.20
2018-08-03T11:18:16.185Z,53.80
2018-08-03T11:20:20.061Z,51.80
2018-08-03T11:22:23.888Z,54.00
2018-08-03T11:24:27.741Z,51.80
2018-08-03T11:26:31.522Z,54.00
2018-08-03T11:28:35.351Z,53.40
2018-08-03T11:30:39.110Z,53.90
2018-08-03T11:32:42.859Z,54.00
2018-08-03T11:34:46.645Z,52.70
2018-08-03T11:36:50.461Z,51.60
2018-08-03T11:38:54.263Z,51.60
2018-08-03T11:40:58.167Z,53.00
2018-08-03T11:43:02.516Z,51.60
2018-08-03T11:45:08.070Z,50.50
2018-08-03T11:47:11.889Z,51.90
2018-08-03T11:49:15.784Z,50.80
2018-08-03T11:51:20.549Z,51.70
2018-08-03T11:53:24.348Z,52.20
2018-08-03T11:55:28.301Z,53.10
2018-08-03T11:57:32.177Z,51.10
2018-08-03T11:59:35.958Z,51.50
2018-08-03T12:01:41.309Z,50.10
2018-08-03T12:03:45.687Z,54.00
2018-08-03T12:05:49.995Z,55.00
2018-08-03T12:07:55.592Z,54.00
2018-08-03T12:09:59.362Z,54.30
2018-08-03T12:12:03.222Z,52.50
2018-08-03T12:14:08.324Z,53.30
2018-08-03T12:16:12.283Z,51.40
2018-08-03T12:18:16.076Z,52.10
2018-08-03T12:20:19.886Z,50.60
2018-08-03T12:22:23.711Z,54.80
2018-08-03T12:24:27.492Z,50.90
2018-08-03T12:26:31.237Z,50.80
2018-08-03T12:28:34.968Z,50.00
2018-08-03T12:30:38.780Z,53.00
2018-08-03T12:32:42.642Z,53.60
2018-08-03T12:34:46.450Z,51.60
2018-08-03T12:36:50.199Z,51.50
2018-08-03T12:38:54.903Z,51.90
2018-08-03T12:40:59.899Z,50.40
2018-08-03T12:43:03.739Z,49.40
2018-08-03T12:45:07.733Z,52.30
2018-08-03T12:47:11.601Z,52.10
2018-08-03T12:49:15.391Z,53.10
2018-08-03T12:51:19.237Z,54.20
2018-08-03T12:53:23.072Z,53.00
2018-08-03T12:55:26.863Z,49.80
2018-08-03T12:57:30.708Z,48.50
2018-08-03T12:59:34.563Z,53.90
2018-08-03T13:01:38.387Z,52.10
2018-08-03T13:03:42.289Z,54.00
2018-08-03T13:05:46.173Z,51.20
2018-08-03T13:07:50.532Z,52.60
2018-08-03T13:09:54.242Z,53.60
2018-08-03T13:11:58.023Z,53.80
2018-08-03T13:14:01.832Z,51.20
2018-08-03T13:16:05.859Z,51.70
2018-08-03T13:18:09.813Z,49.60
2018-08-03T13:20:13.649Z,49.60
2018-08-03T13:22:20.933Z,52.70
2018-08-03T13:24:24.789Z,48.80
2018-08-03T13:26:28.791Z,50.10
2018-08-03T13:28:32.632Z,49.60
2018-08-03T13:30:36.426Z,50.80
2018-08-03T13:32:40.252Z,50.60
2018-08-03T13:34:44.025Z,52.00
2018-08-03T13:36:47.824Z,50.40
2018-08-03T13:38:51.993Z,50.40
2018-08-03T13:40:55.772Z,50.60
2018-08-03T13:42:59.643Z,50.60
2018-08-03T13:45:03.700Z,49.90
2018-08-03T13:47:07.507Z,50.10
2018-08-03T13:49:11.397Z,50.40
2018-08-03T13:51:16.329Z,50.30
2018-08-03T13:53:20.178Z,50.90
2018-08-03T13:55:24.065Z,49.90
2018-08-03T13:57:27.902Z,51.00
2018-08-03T13:59:31.666Z,51.90
2018-08-03T14:02:41.102Z,51.80
2018-08-03T14:04:45.018Z,51.20
2018-08-03T14:06:48.857Z,51.90
2018-08-03T14:08:52.679Z,50.80
2018-08-03T14:10:56.462Z,52.50
2018-08-03T14:13:00.270Z,51.40
2018-08-03T14:15:04.238Z,51.80
2018-08-03T14:17:08.260Z,50.80
2018-08-03T14:19:12.088Z,50.90
2018-08-03T14:21:15.947Z,50.60
2018-08-03T14:23:19.927Z,49.90
2018-08-03T14:25:23.827Z,50.40
2018-08-03T14:27:27.616Z,50.00
2018-08-03T14:29:31.520Z,50.60
2018-08-03T14:31:35.517Z,51.00
2018-08-03T14:33:39.279Z,51.10
2018-08-03T14:35:43.217Z,51.60
2018-08-03T14:37:47.085Z,51.20
2018-08-03T14:39:50.882Z,53.00
2018-08-03T14:41:55.091Z,52.20
2018-08-03T14:43:59.202Z,52.20
2018-08-03T14:46:03.097Z,51.60
2018-08-03T14:48:30.103Z,51.10
2018-08-03T14:50:54.222Z,50.30
2018-08-03T14:52:58.029Z,50.20
2018-08-03T14:55:01.874Z,50.80
2018-08-03T14:57:05.906Z,52.00
2018-08-03T14:59:09.775Z,50.40
2018-08-03T15:01:13.573Z,50.60
2018-08-03T15:03:17.631Z,50.60
2018-08-03T15:05:21.469Z,49.70
2018-08-03T15:07:26.633Z,51.00
2018-08-03T15:09:30.407Z,51.00
2018-08-03T15:11:35.194Z,50.50
2018-08-03T15:13:39.166Z,50.20
2018-08-03T15:15:43.196Z,51.60
2018-08-03T15:17:47.082Z,52.10
2018-08-03T15:19:50.867Z,52.90
2018-08-03T15:21:54.703Z,50.90
2018-08-03T15:23:58.627Z,52.60
2018-08-03T15:26:03.484Z,51.10
2018-08-03T15:28:08.495Z,51.10
2018-08-03T15:30:12.882Z,51.40
2018-08-03T15:32:16.744Z,51.20
2018-08-03T15:34:20.801Z,51.30
2018-08-03T15:36:24.814Z,52.20
2018-08-03T15:38:28.683Z,51.20
2018-08-03T15:40:33.579Z,51.10
2018-08-03T15:42:37.396Z,52.00
2018-08-03T15:44:41.304Z,51.70
2018-08-03T15:46:45.137Z,51.20
2018-08-03T15:48:49.100Z,51.40
2018-08-03T15:50:53.118Z,50.90
2018-08-03T15:52:57.111Z,52.20
2018-08-03T15:55:01.917Z,50.80
2018-08-03T15:57:06.428Z,50.50
2018-08-03T15:59:10.302Z,51.90
2018-08-03T16:01:14.459Z,51.50
2018-08-03T16:03:28.478Z,52.00
2018-08-03T16:05:32.335Z,52.10
2018-08-03T16:07:36.139Z,51.20
2018-08-03T16:09:39.973Z,52.70
2018-08-03T16:11:43.725Z,53.50
2018-08-03T16:13:47.484Z,51.50
2018-08-03T16:15:51.349Z,52.50
2018-08-03T16:17:55.142Z,51.50
2018-08-03T16:19:58.970Z,51.50
2018-08-03T16:22:02.755Z,52.00
2018-08-03T16:24:06.660Z,51.30
2018-08-03T16:26:10.654Z,52.10
2018-08-03T16:28:14.743Z,51.10
2018-08-03T16:30:18.909Z,50.60
2018-08-03T16:32:22.745Z,49.40
2018-08-03T16:34:26.582Z,49.60
2018-08-03T16:36:30.657Z,49.60
2018-08-03T16:38:34.809Z,49.70
2018-08-03T16:40:39.071Z,50.20
2018-08-03T16:42:42.908Z,49.40
2018-08-03T16:44:46.970Z,49.20
2018-08-03T23:11:35.007Z,57.30
2018-08-03T23:13:39.051Z,57.20
2018-08-03T23:15:43.065Z,57.90
2018-08-03T23:17:47.220Z,58.90
2018-08-03T23:19:51.261Z,80.50
2018-08-03T23:21:55.251Z,60.70
2018-08-03T23:23:59.341Z,62.50
2018-08-03T23:26:03.529Z,62.70
2018-08-03T23:30:11.999Z,64.40
2018-08-03T23:32:16.013Z,65.20
2018-08-03T23:34:19.975Z,61.50
2018-08-03T23:36:23.894Z,61.90
2018-08-03T23:38:29.110Z,60.70
2018-08-03T23:40:33.224Z,59.60
2018-08-03T23:42:37.392Z,59.40
2018-08-03T23:44:41.733Z,58.60
2018-08-03T23:46:45.887Z,58.70
2018-08-03T23:48:49.842Z,59.30
2018-08-03T23:50:54.199Z,59.30
2018-08-03T23:52:58.297Z,60.40
2018-08-03T23:55:02.810Z,61.20
2018-08-03T23:57:06.929Z,62.10
2018-08-03T23:59:10.887Z,63.40
